createdAt,value
2023-05-19T00:00:17.718Z,54.35
2023-05-19T00:02:44.819Z,54.40
2023-05-19T00:05:12.095Z,54.54
2023-05-19T00:07:38.883Z,53.52
2023-05-19T00:10:06.661Z,54.96
2023-05-19T00:12:33.525Z,56.27
2023-05-19T00:15:01.894Z,55.56
2023-05-19T00:17:28.519Z,55.98
2023-05-19T00:19:54.995Z,56.57
2023-05-19T00:22:21.467Z,55.85
2023-05-19T00:24:47.918Z,54.46
2023-05-19T00:27:14.380Z,56.10
2023-05-19T00:29:40.847Z,56.24
2023-05-19T00:32:08.797Z,55.78
2023-05-19T00:34:35.239Z,56.25
2023-05-19T00:37:01.648Z,56.00
2023-05-19T00:39:28.144Z,56.29
2023-05-19T00:41:54.715Z,56.82
2023-05-19T00:44:21.186Z,55.67
2023-05-19T00:46:47.666Z,55.56
2023-05-19T00:49:15.437Z,55.30
2023-05-19T00:51:42.112Z,55.09
2023-05-19T00:54:09.041Z,57.24
2023-05-19T00:56:35.585Z,56.86
2023-05-19T00:59:02.964Z,55.85
2023-05-19T01:01:29.507Z,57.36
2023-05-19T01:03:56.990Z,56.22
2023-05-19T01:06:24.913Z,56.50
2023-05-19T01:08:51.657Z,57.05
2023-05-19T01:11:18.118Z,57.70
2023-05-19T01:13:44.650Z,57.55
2023-05-19T01:16:17.086Z,57.95
2023-05-19T01:18:53.882Z,58.46
2023-05-19T01:21:54.565Z,57.16
2023-05-19T01:24:45.147Z,55.64
2023-05-19T01:27:57.355Z,58.37
2023-05-19T01:30:27.292Z,56.33
2023-05-19T01:32:57.574Z,56.93
2023-05-19T01:35:25.667Z,57.44
2023-05-19T01:37:54.918Z,57.01
2023-05-19T01:40:23.524Z,57.92
2023-05-19T01:42:52.314Z,57.94
2023-05-19T01:45:20.180Z,58.41
2023-05-19T01:47:54.403Z,58.06
2023-05-19T01:50:21.795Z,57.68
2023-05-19T01:52:48.345Z,57.16
2023-05-19T01:55:14.802Z,58.40
2023-05-19T01:57:50.380Z,57.90
2023-05-19T02:00:25.851Z,57.36
2023-05-19T02:03:01.818Z,56.47
2023-05-19T02:05:36.151Z,56.81
2023-05-19T02:08:12.848Z,56.17
2023-05-19T02:10:42.023Z,56.88
2023-05-19T02:13:11.072Z,58.11
2023-05-19T02:15:40.707Z,57.26
2023-05-19T02:18:10.191Z,58.53
2023-05-19T02:20:36.781Z,58.64
2023-05-19T02:23:03.199Z,57.35
2023-05-19T02:25:29.734Z,56.86
2023-05-19T02:27:57.343Z,56.68
2023-05-19T02:30:26.049Z,57.79
2023-05-19T02:32:52.572Z,58.77
2023-05-19T02:35:20.591Z,58.29
2023-05-19T02:37:47.070Z,58.79
2023-05-19T02:40:13.570Z,59.07
2023-05-19T02:42:40.019Z,58.92
2023-05-19T02:45:07.567Z,58.85
2023-05-19T02:47:36.773Z,59.09
2023-05-19T02:50:04.419Z,58.85
2023-05-19T02:52:32.210Z,58.74
2023-05-19T02:54:58.728Z,59.13
2023-05-19T02:57:25.237Z,58.51
2023-05-19T02:59:51.671Z,58.41
2023-05-19T03:02:18.356Z,58.25
2023-05-19T03:04:44.852Z,59.18
2023-05-19T03:07:11.549Z,59.36
2023-05-19T03:09:39.788Z,58.59
2023-05-19T03:12:06.719Z,59.39
2023-05-19T03:14:34.548Z,59.40
2023-05-19T03:17:01.183Z,60.67
2023-05-19T03:19:27.747Z,60.04
2023-05-19T03:21:54.354Z,60.78
2023-05-19T03:24:20.864Z,60.56
2023-05-19T03:26:48.633Z,60.44
2023-05-19T03:29:15.119Z,59.77
2023-05-19T03:31:41.617Z,59.87
2023-05-19T03:34:08.355Z,60.84
2023-05-19T03:36:34.826Z,60.15
2023-05-19T03:39:01.309Z,60.73
2023-05-19T03:41:27.698Z,60.66
2023-05-19T03:43:55.447Z,61.34
2023-05-19T03:46:22.271Z,61.13
2023-05-19T03:48:48.790Z,61.67
2023-05-19T03:51:15.247Z,60.81
2023-05-19T03:53:41.713Z,61.15
2023-05-19T03:56:08.406Z,61.48
2023-05-19T03:58:34.906Z,60.18
2023-05-19T04:01:02.922Z,60.43
2023-05-19T04:03:29.399Z,60.63
2023-05-19T04:05:55.937Z,60.51
2023-05-19T04:08:22.440Z,60.74
2023-05-19T04:10:48.951Z,61.15
2023-05-19T04:13:15.471Z,61.33
2023-05-19T04:15:42.012Z,61.47
2023-05-19T04:18:09.882Z,61.73
2023-05-19T04:20:36.353Z,62.32
2023-05-19T04:23:02.983Z,61.60
2023-05-19T04:25:29.462Z,60.93
2023-05-19T04:27:55.889Z,61.56
2023-05-19T04:30:23.683Z,60.18
2023-05-19T04:32:50.547Z,60.67
2023-05-19T04:35:18.501Z,61.22
2023-05-19T04:37:45.122Z,61.43
2023-05-19T04:40:12.586Z,61.75
2023-05-19T04:42:39.006Z,62.36
2023-05-19T04:45:06.508Z,61.55
2023-05-19T04:47:32.988Z,62.05
2023-05-19T04:49:59.405Z,61.61
2023-05-19T04:52:27.314Z,62.17
2023-05-19T04:54:53.689Z,62.34
2023-05-19T04:57:20.104Z,61.46
2023-05-19T04:59:46.573Z,60.59
2023-05-19T05:02:13.061Z,60.08
2023-05-19T05:04:39.665Z,60.98
2023-05-19T05:07:06.099Z,59.88
2023-05-19T05:09:33.871Z,61.38
2023-05-19T05:12:01.456Z,60.32
2023-05-19T05:14:28.681Z,60.08
2023-05-19T05:16:55.611Z,61.07
2023-05-19T05:19:22.596Z,61.41
2023-05-19T05:21:49.744Z,59.57
2023-05-19T05:24:16.942Z,59.95
2023-05-19T05:26:45.327Z,60.19
2023-05-19T05:29:11.908Z,59.46
2023-05-19T05:31:38.321Z,59.45
2023-05-19T05:34:04.777Z,57.56
2023-05-19T05:36:31.326Z,58.18
2023-05-19T05:38:57.759Z,58.01
2023-05-19T05:41:24.144Z,58.45
2023-05-19T05:43:51.871Z,61.10
2023-05-19T05:46:18.330Z,61.34
2023-05-19T05:48:45.367Z,63.06
2023-05-19T05:51:12.373Z,63.29
2023-05-19T05:53:41.895Z,64.72
2023-05-19T05:56:09.742Z,63.34
2023-05-19T05:58:37.423Z,61.29
2023-05-19T06:01:05.383Z,62.49
2023-05-19T06:03:32.368Z,64.22
2023-05-19T06:05:58.919Z,61.91
2023-05-19T06:08:25.480Z,62.75
2023-05-19T06:10:51.879Z,62.75
2023-05-19T06:13:18.301Z,62.56
2023-05-19T06:15:44.776Z,60.51
2023-05-19T06:18:12.574Z,60.24
2023-05-19T06:20:39.033Z,52.25
2023-05-19T06:23:05.506Z,49.02
2023-05-19T06:25:32.133Z,56.35
2023-05-19T06:27:58.760Z,56.60
2023-05-19T06:30:26.854Z,48.42
2023-05-19T06:32:53.372Z,40.92
2023-05-19T06:35:21.282Z,48.29
2023-05-19T06:37:47.743Z,54.29
2023-05-19T06:40:14.297Z,51.24
2023-05-19T06:42:40.837Z,51.53
2023-05-19T06:45:08.709Z,47.78
2023-05-19T06:47:35.258Z,48.75
2023-05-19T06:50:01.971Z,47.90
2023-05-19T06:52:29.753Z,50.93
2023-05-19T06:54:56.194Z,52.36
2023-05-19T06:57:22.700Z,51.89
2023-05-19T06:59:49.122Z,43.33
2023-05-19T07:02:15.573Z,42.52
2023-05-19T07:04:42.211Z,49.96
2023-05-19T07:07:08.614Z,47.73
2023-05-19T07:09:36.312Z,49.68
2023-05-19T07:12:02.813Z,52.90
2023-05-19T07:14:29.274Z,53.04
2023-05-19T07:16:55.751Z,48.39
2023-05-19T07:19:22.455Z,48.06
2023-05-19T07:21:49.559Z,50.24
2023-05-19T07:24:15.972Z,43.19
2023-05-19T07:26:43.728Z,44.40
2023-05-19T07:29:10.122Z,47.31
2023-05-19T07:31:36.598Z,42.38
2023-05-19T07:34:03.526Z,49.11
2023-05-19T07:36:29.981Z,44.70
2023-05-19T07:38:56.519Z,48.21
2023-05-19T07:41:23.000Z,50.06
2023-05-19T07:43:50.722Z,52.01
2023-05-19T07:46:17.412Z,44.20
2023-05-19T07:48:44.223Z,45.90
2023-05-19T07:51:10.879Z,43.96
2023-05-19T07:53:37.294Z,48.49
2023-05-19T07:56:04.402Z,50.14
2023-05-19T07:58:30.841Z,50.03
2023-05-19T08:00:59.255Z,50.15
2023-05-19T08:03:26.529Z,50.51
2023-05-19T08:05:53.117Z,50.02
2023-05-19T08:08:19.538Z,49.97
2023-05-19T08:10:46.601Z,47.69
2023-05-19T08:13:13.089Z,47.73
2023-05-19T08:15:39.651Z,48.31
2023-05-19T08:18:07.638Z,49.07
2023-05-19T08:20:34.282Z,48.51
2023-05-19T08:23:00.897Z,48.09
2023-05-19T08:25:27.322Z,48.33
2023-05-19T08:27:53.768Z,48.89
2023-05-19T08:30:20.654Z,49.04
2023-05-19T08:32:47.239Z,47.26
2023-05-19T08:35:15.105Z,46.05
2023-05-19T08:37:41.598Z,47.84
2023-05-19T08:40:16.015Z,49.17
2023-05-19T08:42:42.452Z,47.58
2023-05-19T08:45:09.912Z,46.05
2023-05-19T08:47:36.455Z,45.25
2023-05-19T08:50:05.907Z,46.33
2023-05-19T08:52:45.997Z,44.87
2023-05-19T08:55:25.308Z,45.27
2023-05-19T08:57:52.433Z,44.06
2023-05-19T09:00:19.608Z,42.80
2023-05-19T09:02:59.705Z,43.77
2023-05-19T09:05:33.249Z,44.04
2023-05-19T09:08:01.320Z,43.52
2023-05-19T09:10:29.107Z,42.69
2023-05-19T09:12:55.976Z,42.69
2023-05-19T09:15:27.611Z,42.76
2023-05-19T09:18:05.845Z,43.80
2023-05-19T09:20:37.026Z,44.09
2023-05-19T09:23:05.555Z,40.93
2023-05-19T09:25:32.142Z,39.81
2023-05-19T09:27:58.670Z,41.18
2023-05-19T09:30:26.356Z,43.39
2023-05-19T09:32:52.877Z,43.01
2023-05-19T09:35:19.569Z,42.87
2023-05-19T09:37:46.277Z,42.02
2023-05-19T09:40:15.671Z,42.04
2023-05-19T09:42:42.314Z,40.67
2023-05-19T09:45:09.443Z,41.72
2023-05-19T09:47:36.906Z,41.52
2023-05-19T09:50:06.164Z,41.21
2023-05-19T09:52:35.373Z,38.81
2023-05-19T09:55:02.282Z,40.89
2023-05-19T09:57:33.878Z,40.58
2023-05-19T10:00:00.941Z,39.83
2023-05-19T10:02:28.509Z,40.46
2023-05-19T10:04:55.373Z,40.10
2023-05-19T10:07:23.051Z,40.35
2023-05-19T10:09:51.072Z,40.98
2023-05-19T10:12:18.079Z,41.15
2023-05-19T10:14:47.551Z,41.35
2023-05-19T10:17:14.843Z,39.93
2023-05-19T10:19:42.902Z,39.14
2023-05-19T10:22:09.311Z,39.65
2023-05-19T10:24:35.740Z,38.09
2023-05-19T10:27:07.414Z,36.35
2023-05-19T10:29:37.650Z,36.87
2023-05-19T10:32:11.276Z,37.95
2023-05-19T10:35:08.960Z,38.23
2023-05-19T10:37:43.936Z,38.85
2023-05-19T10:40:18.514Z,37.69
2023-05-19T10:42:55.591Z,37.62
2023-05-19T10:45:27.118Z,39.95
2023-05-19T10:47:55.601Z,38.98
2023-05-19T10:50:22.059Z,40.58
2023-05-19T10:52:53.546Z,39.04
2023-05-19T10:55:47.593Z,38.56
2023-05-19T10:58:14.051Z,39.03
2023-05-19T11:00:40.470Z,37.82
2023-05-19T11:03:14.290Z,39.33
2023-05-19T11:05:40.951Z,39.86
2023-05-19T11:08:07.380Z,38.41
2023-05-19T11:10:34.226Z,40.09
2023-05-19T11:13:03.952Z,39.85
2023-05-19T11:15:35.116Z,39.32
2023-05-19T11:18:02.523Z,39.77
2023-05-19T11:20:30.198Z,39.65
2023-05-19T11:23:07.715Z,38.33
2023-05-19T11:25:45.241Z,36.77
2023-05-19T11:28:15.030Z,36.25
2023-05-19T11:30:42.280Z,35.38
2023-05-19T11:33:09.005Z,34.30
2023-05-19T11:35:36.513Z,35.03
2023-05-19T11:38:03.667Z,35.22
2023-05-19T11:40:30.764Z,34.35
2023-05-19T11:42:57.858Z,34.37
2023-05-19T11:45:27.187Z,34.76
2023-05-19T11:50:26.587Z,35.58
2023-05-19T11:52:54.154Z,35.91
2023-05-19T11:55:21.176Z,35.96
2023-05-19T11:58:03.022Z,35.45
2023-05-19T12:00:37.815Z,35.19
2023-05-19T12:03:05.367Z,35.13
2023-05-19T12:05:34.985Z,35.07
2023-05-19T12:08:04.134Z,35.00
2023-05-19T12:10:31.486Z,35.06
2023-05-19T12:12:58.897Z,34.30
2023-05-19T12:15:26.527Z,33.71
2023-05-19T12:17:59.147Z,34.10
2023-05-19T12:20:26.892Z,33.49
2023-05-19T12:22:55.200Z,34.04
2023-05-19T12:25:22.384Z,33.90
2023-05-19T12:27:48.825Z,32.24
2023-05-19T12:30:16.660Z,32.50
2023-05-19T12:32:43.435Z,33.00
2023-05-19T12:35:11.604Z,32.70
2023-05-19T12:37:41.671Z,32.07
2023-05-19T12:40:09.594Z,32.24
2023-05-19T12:42:36.174Z,33.03
2023-05-19T12:45:04.626Z,33.61
2023-05-19T12:47:32.538Z,33.82
2023-05-19T12:50:02.243Z,33.48
2023-05-19T12:52:31.096Z,32.57
2023-05-19T12:55:01.174Z,32.13
2023-05-19T12:57:27.973Z,32.94
2023-05-19T13:00:00.452Z,32.92
2023-05-19T13:02:27.313Z,33.30
2023-05-19T13:04:53.765Z,33.89
2023-05-19T13:07:20.272Z,33.63
2023-05-19T13:09:48.017Z,33.93
2023-05-19T13:12:14.412Z,33.85
2023-05-19T13:14:40.821Z,34.17
2023-05-19T13:17:07.313Z,33.89
2023-05-19T13:19:33.756Z,33.86
2023-05-19T13:22:00.214Z,33.39
2023-05-19T13:24:26.694Z,32.76
2023-05-19T13:26:55.870Z,34.39
2023-05-19T13:29:22.634Z,34.45
2023-05-19T13:31:49.224Z,34.26
2023-05-19T13:34:15.632Z,34.53
2023-05-19T13:36:42.046Z,34.32
2023-05-19T13:39:08.457Z,33.32
2023-05-19T13:41:34.858Z,34.05
2023-05-19T13:44:02.622Z,34.10
2023-05-19T13:46:43.503Z,34.49
2023-05-19T13:49:15.465Z,33.65
2023-05-19T13:51:43.342Z,33.49
2023-05-19T13:54:09.766Z,32.73
2023-05-19T13:56:36.320Z,32.53
2023-05-19T13:59:04.320Z,32.70
2023-05-19T14:01:30.802Z,33.33
2023-05-19T14:03:57.483Z,33.44
2023-05-19T14:06:24.237Z,34.19
2023-05-19T14:08:50.640Z,34.01
2023-05-19T14:11:20.894Z,34.18
2023-05-19T14:13:50.046Z,33.78
2023-05-19T14:16:19.728Z,33.71
2023-05-19T14:18:46.161Z,32.97
2023-05-19T14:21:12.658Z,32.72
2023-05-19T14:23:39.080Z,32.69
2023-05-19T14:26:05.684Z,32.16
2023-05-19T14:28:32.169Z,33.46
2023-05-19T14:30:58.668Z,33.90
2023-05-19T14:33:26.519Z,33.91
2023-05-19T14:35:53.261Z,34.28
2023-05-19T14:38:19.660Z,34.15
2023-05-19T14:40:46.151Z,34.46
2023-05-19T14:43:12.581Z,33.99
2023-05-19T14:45:39.023Z,33.63
2023-05-19T14:48:05.626Z,32.85
2023-05-19T14:50:33.739Z,32.99
2023-05-19T14:53:00.232Z,32.92
2023-05-19T14:55:26.645Z,33.40
2023-05-19T14:57:53.210Z,33.19
2023-05-19T15:00:19.859Z,33.13
2023-05-19T15:02:46.430Z,32.86
2023-05-19T15:05:12.905Z,33.37
2023-05-19T15:07:40.629Z,33.54
2023-05-19T15:10:08.013Z,33.39
2023-05-19T15:12:34.441Z,33.56
2023-05-19T15:15:00.949Z,33.28
2023-05-19T15:17:27.437Z,33.50
2023-05-19T15:19:53.880Z,33.99
2023-05-19T15:22:20.286Z,33.80
2023-05-19T15:24:48.143Z,33.73
2023-05-19T15:27:14.638Z,33.74
2023-05-19T15:29:41.648Z,33.80
2023-05-19T15:32:08.674Z,34.64
2023-05-19T15:34:35.154Z,34.95
2023-05-19T15:37:01.608Z,34.41
2023-05-19T15:39:29.721Z,34.32
2023-05-19T15:41:57.517Z,34.32
2023-05-19T15:44:23.941Z,34.39
2023-05-19T15:46:50.485Z,33.15
2023-05-19T15:49:17.026Z,33.21
2023-05-19T15:51:43.842Z,33.50
2023-05-19T15:54:10.314Z,33.60
2023-05-19T15:56:36.777Z,33.99
2023-05-19T15:59:04.492Z,34.11
2023-05-19T16:01:30.992Z,34.34
2023-05-19T16:03:57.659Z,34.65
2023-05-19T16:06:24.115Z,34.58
2023-05-19T16:08:50.517Z,34.78
2023-05-19T16:11:16.970Z,34.48
2023-05-19T16:13:43.389Z,34.72
2023-05-19T16:16:11.143Z,34.81
2023-05-19T16:18:37.900Z,34.70
2023-05-19T16:21:04.926Z,33.50
2023-05-19T16:23:31.523Z,33.56
2023-05-19T16:25:58.066Z,34.76
2023-05-19T16:28:24.858Z,35.05
2023-05-19T16:30:51.763Z,34.73
2023-05-19T16:33:19.538Z,34.89
2023-05-19T16:35:46.018Z,35.52
2023-05-19T16:38:12.521Z,35.47
2023-05-19T16:40:39.234Z,35.59
2023-05-19T16:43:05.691Z,36.32
2023-05-19T16:45:32.141Z,36.50
2023-05-19T16:47:58.807Z,36.42
2023-05-19T16:50:26.596Z,35.38
2023-05-19T16:52:53.158Z,35.27
2023-05-19T16:55:19.851Z,35.32
2023-05-19T16:57:46.498Z,35.33
2023-05-19T17:00:14.049Z,35.36
2023-05-19T17:02:40.566Z,35.37
2023-05-19T17:05:07.967Z,35.26
2023-05-19T17:07:35.899Z,35.39
2023-05-19T17:10:02.429Z,35.28
2023-05-19T17:12:28.909Z,35.75
2023-05-19T17:14:55.315Z,35.62
2023-05-19T17:17:21.753Z,36.11
2023-05-19T17:19:48.217Z,35.41
2023-05-19T17:22:14.661Z,35.78
2023-05-19T17:24:42.754Z,35.67
2023-05-19T17:27:09.188Z,36.19
2023-05-19T17:29:36.874Z,35.19
2023-05-19T17:32:03.996Z,35.79
2023-05-19T17:34:30.518Z,36.03
2023-05-19T17:36:56.930Z,36.25
2023-05-19T17:39:23.496Z,35.80
2023-05-19T17:41:51.234Z,35.96
2023-05-19T17:44:17.704Z,35.67
2023-05-19T17:46:44.238Z,35.90
2023-05-19T17:49:10.805Z,36.02
2023-05-19T17:51:37.901Z,35.67
2023-05-19T17:54:05.105Z,36.06
2023-05-19T17:56:33.527Z,35.77
2023-05-19T17:59:01.885Z,36.30
2023-05-19T18:01:28.859Z,36.15
2023-05-19T18:03:55.948Z,36.20
2023-05-19T18:06:25.201Z,36.59
2023-05-19T18:08:54.891Z,35.29
2023-05-19T18:11:21.999Z,35.69
2023-05-19T18:13:48.445Z,36.11
2023-05-19T18:16:16.307Z,36.10
2023-05-19T18:18:42.800Z,35.92
2023-05-19T18:21:09.280Z,36.80
2023-05-19T18:23:35.750Z,36.91
2023-05-19T18:26:02.162Z,37.47
2023-05-19T18:28:28.731Z,37.42
2023-05-19T18:30:59.219Z,37.38
2023-05-19T18:33:28.584Z,36.89
2023-05-19T18:35:56.544Z,37.58
2023-05-19T18:38:23.070Z,37.78
2023-05-19T18:40:49.752Z,37.67
2023-05-19T18:43:16.207Z,37.41
2023-05-19T18:45:42.734Z,37.78
2023-05-19T18:48:09.305Z,37.60
2023-05-19T18:50:37.119Z,37.91
2023-05-19T18:53:03.680Z,37.41
2023-05-19T18:55:30.202Z,37.85
2023-05-19T18:57:56.646Z,37.84
2023-05-19T19:00:23.819Z,38.36
2023-05-19T19:02:50.286Z,38.25
2023-05-19T19:05:16.746Z,38.62
2023-05-19T19:07:44.682Z,38.91
2023-05-19T19:10:11.684Z,38.87
2023-05-19T19:12:38.142Z,39.19
2023-05-19T19:15:05.825Z,39.31
2023-05-19T19:17:32.292Z,39.01
2023-05-19T19:19:58.760Z,39.50
2023-05-19T19:22:25.315Z,39.13
2023-05-19T19:24:53.275Z,39.08
2023-05-19T19:27:19.691Z,39.09
2023-05-19T19:29:46.181Z,39.67
2023-05-19T19:32:12.592Z,39.87
2023-05-19T19:34:38.979Z,39.78
2023-05-19T19:37:05.431Z,40.29
2023-05-19T19:39:31.836Z,40.18
2023-05-19T19:41:59.707Z,40.49
2023-05-19T19:44:26.225Z,40.89
2023-05-19T19:46:52.701Z,40.11
2023-05-19T19:49:19.168Z,41.04
2023-05-19T19:51:45.655Z,41.18
2023-05-19T19:54:12.072Z,40.87
2023-05-19T19:56:38.520Z,41.48
2023-05-19T19:59:06.302Z,40.92
2023-05-19T20:01:32.717Z,41.41
2023-05-19T20:03:59.278Z,41.45
2023-05-19T20:06:25.997Z,41.71
2023-05-19T20:08:52.442Z,41.78
2023-05-19T20:11:18.973Z,41.87
2023-05-19T20:13:45.453Z,41.98
2023-05-19T20:16:13.228Z,42.81
2023-05-19T20:18:39.761Z,42.77
2023-05-19T20:21:06.278Z,43.48
2023-05-19T20:23:32.783Z,43.40
2023-05-19T20:26:11.058Z,43.31
2023-05-19T20:28:38.740Z,43.93
2023-05-19T20:31:05.815Z,43.68
2023-05-19T20:33:33.625Z,43.61
2023-05-19T20:36:00.263Z,43.13
2023-05-19T20:38:27.112Z,42.67
2023-05-19T20:40:53.760Z,42.51
2023-05-19T20:43:20.268Z,42.96
2023-05-19T20:45:46.725Z,43.24
2023-05-19T20:48:13.286Z,43.04
2023-05-19T20:50:41.156Z,44.37
2023-05-19T20:53:07.845Z,43.45
2023-05-19T20:55:34.650Z,43.80
2023-05-19T20:58:01.320Z,44.04
2023-05-19T21:00:30.595Z,44.34
2023-05-19T21:02:57.310Z,44.05
2023-05-19T21:05:24.017Z,44.38
2023-05-19T21:07:51.972Z,44.97
2023-05-19T21:10:18.859Z,44.89
2023-05-19T21:12:45.463Z,44.11
2023-05-19T21:15:12.403Z,45.46
2023-05-19T21:17:38.893Z,44.83
2023-05-19T21:20:06.522Z,45.56
2023-05-19T21:22:33.037Z,45.58
2023-05-19T21:25:00.853Z,45.54
2023-05-19T21:27:27.456Z,45.89
2023-05-19T21:29:54.053Z,45.50
2023-05-19T21:32:21.235Z,44.78
2023-05-19T21:34:47.689Z,45.13
2023-05-19T21:37:14.213Z,46.14
2023-05-19T21:39:40.712Z,47.09
2023-05-19T21:42:08.564Z,46.46
2023-05-19T21:44:34.981Z,46.05
2023-05-19T21:47:01.474Z,46.62
2023-05-19T21:49:27.923Z,46.68
2023-05-19T21:51:54.399Z,46.73
2023-05-19T21:54:20.810Z,47.31
2023-05-19T21:56:47.228Z,46.98
2023-05-19T21:59:14.980Z,47.33
2023-05-19T22:01:41.470Z,47.72
2023-05-19T22:04:08.033Z,47.50
2023-05-19T22:06:34.600Z,47.53
2023-05-19T22:09:01.102Z,48.35
2023-05-19T22:11:27.761Z,47.88
2023-05-19T22:13:54.258Z,49.06
2023-05-19T22:16:22.166Z,49.33
2023-05-19T22:18:48.685Z,48.81
2023-05-19T22:21:15.195Z,49.10
2023-05-19T22:23:41.677Z,49.91
2023-05-19T22:26:08.190Z,49.23
2023-05-19T22:28:34.703Z,49.49
2023-05-19T22:31:01.136Z,49.54
2023-05-19T22:33:29.020Z,48.78
2023-05-19T22:35:55.487Z,50.02
2023-05-19T22:38:21.969Z,49.94
2023-05-19T22:40:51.344Z,49.39
2023-05-19T22:43:17.793Z,49.30
2023-05-19T22:45:44.383Z,49.48
2023-05-19T22:48:10.933Z,50.32
2023-05-19T22:50:38.726Z,50.37
2023-05-19T22:53:05.141Z,50.62
2023-05-19T22:55:31.758Z,49.36
2023-05-19T22:57:58.394Z,50.40
2023-05-19T23:00:25.565Z,49.61
2023-05-19T23:02:51.977Z,51.45
2023-05-19T23:05:18.599Z,51.72
2023-05-19T23:07:46.311Z,52.52
2023-05-19T23:10:12.945Z,51.79
2023-05-19T23:12:39.350Z,51.22
2023-05-19T23:15:07.186Z,52.30
2023-05-19T23:17:33.708Z,51.78
2023-05-19T23:20:00.156Z,51.61
2023-05-19T23:22:26.616Z,52.86
2023-05-19T23:24:54.396Z,52.80
2023-05-19T23:27:20.794Z,52.31
2023-05-19T23:29:47.994Z,53.04
2023-05-19T23:32:14.494Z,53.46
2023-05-19T23:34:40.920Z,51.72
2023-05-19T23:37:07.305Z,53.00
2023-05-19T23:39:33.740Z,53.18
2023-05-19T23:42:01.515Z,52.69
2023-05-19T23:44:27.913Z,53.82
2023-05-19T23:46:54.395Z,52.91
2023-05-19T23:49:20.822Z,53.40
2023-05-19T23:51:47.275Z,52.86
2023-05-19T23:54:13.831Z,53.33
2023-05-19T23:56:40.217Z,54.42
2023-05-19T23:59:07.961Z,54.13
